createdAt,value
2022-08-02T00:01:45.039Z,23.08
2022-08-02T00:04:49.132Z,23.27
2022-08-02T00:07:52.687Z,23.77
2022-08-02T00:10:56.730Z,21.67
2022-08-02T00:14:00.984Z,22.13
2022-08-02T00:17:06.201Z,22.50
2022-08-02T00:20:09.936Z,20.98
2022-08-02T00:23:14.095Z,22.60
2022-08-02T00:26:17.783Z,21.17
2022-08-02T00:29:21.791Z,22.95
2022-08-02T00:32:25.076Z,23.55
2022-08-02T00:35:29.146Z,22.05
2022-08-02T00:38:32.401Z,22.63
2022-08-02T00:41:50.718Z,22.77
2022-08-02T00:44:54.345Z,22.77
2022-08-02T00:47:58.496Z,23.05
2022-08-02T00:51:02.115Z,24.05
2022-08-02T00:54:07.962Z,23.17
2022-08-02T00:57:11.612Z,23.33
2022-08-02T01:00:16.675Z,23.88
2022-08-02T01:03:20.001Z,23.90
2022-08-02T01:06:24.214Z,24.75
2022-08-02T01:09:28.207Z,24.40
2022-08-02T01:12:32.142Z,23.60
2022-08-02T01:15:46.362Z,23.42
2022-08-02T01:18:59.579Z,21.98
2022-08-02T01:23:00.449Z,23.80
2022-08-02T01:26:16.980Z,23.75
2022-08-02T01:29:27.298Z,23.73
2022-08-02T01:32:38.927Z,23.83
2022-08-02T01:35:50.570Z,23.92
2022-08-02T01:38:56.624Z,24.35
2022-08-02T01:42:01.798Z,23.77
2022-08-02T01:45:07.613Z,24.45
2022-08-02T01:48:13.352Z,23.05
2022-08-02T01:51:21.160Z,21.80
2022-08-02T01:54:30.463Z,23.77
2022-08-02T01:57:59.680Z,24.63
2022-08-02T02:01:04.942Z,24.27
2022-08-02T02:04:10.342Z,24.40
2022-08-02T02:07:16.341Z,23.52
2022-08-02T02:10:26.281Z,24.80
2022-08-02T02:13:33.803Z,23.50
2022-08-02T02:16:38.662Z,23.80
2022-08-02T02:19:44.854Z,23.33
2022-08-02T02:22:49.953Z,22.30
2022-08-02T02:25:55.872Z,23.50
2022-08-02T02:29:04.454Z,21.08
2022-08-02T02:32:08.506Z,22.67
2022-08-02T02:35:20.728Z,21.38
2022-08-02T02:38:25.339Z,21.17
2022-08-02T02:41:29.307Z,21.80
2022-08-02T02:44:34.960Z,21.70
2022-08-02T02:47:41.246Z,20.73
2022-08-02T02:50:46.462Z,20.33
2022-08-02T02:54:29.838Z,20.80
2022-08-02T02:57:15.250Z,21.10
2022-08-02T03:00:39.665Z,22.00
2022-08-02T03:03:45.524Z,20.90
2022-08-02T03:06:49.122Z,20.80
2022-08-02T03:09:54.262Z,20.63
2022-08-02T03:12:59.678Z,19.40
2022-08-02T03:16:03.468Z,19.25
2022-08-02T03:19:07.770Z,16.95
2022-08-02T03:22:12.195Z,16.00
2022-08-02T03:25:17.034Z,15.82
2022-08-02T03:28:20.581Z,15.73
2022-08-02T03:31:24.333Z,17.85
2022-08-02T03:34:28.141Z,17.70
2022-08-02T03:37:33.108Z,17.42
2022-08-02T03:40:37.639Z,18.58
2022-08-02T03:43:42.098Z,18.63
2022-08-02T03:46:46.159Z,18.73
2022-08-02T03:49:50.992Z,18.50
2022-08-02T03:52:54.579Z,17.35
2022-08-02T03:55:59.374Z,23.45
2022-08-02T03:59:11.657Z,18.25
2022-08-02T04:02:15.598Z,17.48
2022-08-02T04:05:19.788Z,17.65
2022-08-02T04:08:36.238Z,18.38
2022-08-02T04:11:41.031Z,17.42
2022-08-02T04:14:45.179Z,18.95
2022-08-02T04:18:03.476Z,17.25
2022-08-02T04:21:09.081Z,17.05
2022-08-02T04:24:13.489Z,17.23
2022-08-02T04:27:51.347Z,17.67
2022-08-02T04:30:48.887Z,17.00
2022-08-02T04:33:53.263Z,17.65
2022-08-02T04:36:57.268Z,18.23
2022-08-02T04:40:01.773Z,19.05
2022-08-02T04:43:05.440Z,19.60
2022-08-02T04:46:09.210Z,18.88
2022-08-02T04:49:13.088Z,18.45
2022-08-02T04:52:17.089Z,19.20
2022-08-02T04:55:20.708Z,18.50
2022-08-02T04:58:41.513Z,17.75
2022-08-02T05:01:45.154Z,18.15
2022-08-02T05:04:49.172Z,17.67
2022-08-02T05:07:53.045Z,18.27
2022-08-02T05:10:56.608Z,19.67
2022-08-02T05:14:00.126Z,18.83
2022-08-02T05:17:04.124Z,18.55
2022-08-02T05:20:08.121Z,17.63
2022-08-02T05:23:11.812Z,17.92
2022-08-02T05:26:15.561Z,19.80
2022-08-02T05:29:19.154Z,19.55
2022-08-02T05:32:23.880Z,18.75
2022-08-02T05:35:29.406Z,19.70
2022-08-02T05:38:37.129Z,19.35
2022-08-02T05:41:41.561Z,19.77
2022-08-02T05:44:45.063Z,19.20
2022-08-02T05:47:48.727Z,19.88
2022-08-02T05:50:56.480Z,19.80
2022-08-02T05:54:39.545Z,19.40
2022-08-02T05:58:09.360Z,19.20
2022-08-02T06:01:19.064Z,19.20
2022-08-02T06:04:27.261Z,19.70
2022-08-02T06:07:32.167Z,19.65
2022-08-02T06:10:37.584Z,20.60
2022-08-02T06:13:43.534Z,18.45
2022-08-02T06:19:52.798Z,19.17
2022-08-02T06:22:59.326Z,18.80
2022-08-02T06:26:04.614Z,19.00
2022-08-02T06:29:08.886Z,20.10
2022-08-02T06:32:13.218Z,19.30
2022-08-02T06:35:16.542Z,18.98
2022-08-02T06:38:25.071Z,18.67
2022-08-02T06:41:32.188Z,18.05
2022-08-02T06:44:48.714Z,17.65
2022-08-02T06:47:55.094Z,18.13
2022-08-02T06:50:58.992Z,18.20
2022-08-02T06:54:02.597Z,16.88
2022-08-02T06:57:06.485Z,17.48
2022-08-02T07:00:10.549Z,17.08
2022-08-02T07:03:14.898Z,16.50
2022-08-02T07:06:18.150Z,17.20
2022-08-02T07:09:22.630Z,16.65
2022-08-02T07:12:26.778Z,16.95
2022-08-02T07:15:30.731Z,17.10
2022-08-02T07:18:35.207Z,17.50
2022-08-02T07:21:56.609Z,17.60
2022-08-02T07:25:02.823Z,17.23
2022-08-02T07:28:07.125Z,17.30
2022-08-02T07:31:10.746Z,17.88
2022-08-02T07:34:14.299Z,17.02
2022-08-02T07:37:35.470Z,17.83
2022-08-02T07:40:42.503Z,17.42
2022-08-02T07:43:46.129Z,18.58
2022-08-02T07:46:49.813Z,17.30
2022-08-02T07:49:53.448Z,19.00
2022-08-02T07:52:57.579Z,18.02
2022-08-02T07:56:01.796Z,19.52
2022-08-02T07:59:06.112Z,18.50
2022-08-02T08:02:09.853Z,20.73
2022-08-02T08:05:14.088Z,19.80
2022-08-02T08:08:17.877Z,19.95
2022-08-02T08:11:21.562Z,19.92
2022-08-02T08:14:25.109Z,19.88
2022-08-02T08:17:28.703Z,20.00
2022-08-02T08:20:32.365Z,19.70
2022-08-02T08:23:36.361Z,19.05
2022-08-02T08:26:40.540Z,20.08
2022-08-02T08:29:44.688Z,18.92
2022-08-02T08:32:48.427Z,18.80
2022-08-02T08:35:52.940Z,19.45
2022-08-02T08:38:56.921Z,20.05
2022-08-02T08:42:00.814Z,19.65
2022-08-02T08:45:05.851Z,19.20
2022-08-02T08:48:25.701Z,21.05
2022-08-02T08:51:39.708Z,19.35
2022-08-02T08:54:45.506Z,19.17
2022-08-02T08:57:53.817Z,19.40
2022-08-02T09:00:57.795Z,18.48
2022-08-02T09:04:01.844Z,19.27
2022-08-02T09:07:05.046Z,19.27
2022-08-02T09:10:34.538Z,18.35
2022-08-02T09:13:45.716Z,19.17
2022-08-02T09:16:50.252Z,18.52
2022-08-02T09:20:20.129Z,18.55
2022-08-02T09:23:24.759Z,18.20
2022-08-02T09:26:28.872Z,19.37
2022-08-02T09:29:32.483Z,18.13
2022-08-02T09:32:47.457Z,19.10
2022-08-02T09:39:14.697Z,18.98
2022-08-02T09:42:18.603Z,18.45
2022-08-02T09:45:23.102Z,18.55
2022-08-02T09:48:26.300Z,19.02
2022-08-02T09:51:35.879Z,18.27
2022-08-02T09:54:42.688Z,17.45
2022-08-02T09:57:51.041Z,16.02
2022-08-02T10:01:02.144Z,14.98
2022-08-02T10:04:08.621Z,15.45
2022-08-02T10:07:12.048Z,14.60
2022-08-02T10:10:16.033Z,14.02
2022-08-02T10:13:21.745Z,14.50
2022-08-02T10:16:26.345Z,14.02
2022-08-02T10:20:02.846Z,12.98
2022-08-02T10:22:54.929Z,13.45
2022-08-02T10:26:00.380Z,13.82
2022-08-02T10:29:04.191Z,13.98
2022-08-02T10:32:30.291Z,13.25
2022-08-02T10:35:39.733Z,14.80
2022-08-02T10:38:45.316Z,14.35
2022-08-02T10:41:54.390Z,15.80
2022-08-02T10:45:10.819Z,15.85
2022-08-02T10:48:17.907Z,15.30
2022-08-02T10:51:24.471Z,15.60
2022-08-02T10:54:39.186Z,16.42
2022-08-02T10:57:42.723Z,16.30
2022-08-02T11:00:53.622Z,16.48
2022-08-02T11:04:01.035Z,16.75
2022-08-02T11:07:15.111Z,16.75
2022-08-02T11:10:40.024Z,16.05
2022-08-02T11:14:09.865Z,17.48
2022-08-02T11:17:15.534Z,17.02
2022-08-02T11:20:21.888Z,18.40
2022-08-02T11:23:45.349Z,17.40
2022-08-02T11:26:50.082Z,16.60
2022-08-02T11:29:53.606Z,17.67
2022-08-02T11:32:59.407Z,18.17
2022-08-02T11:36:07.857Z,19.80
2022-08-02T11:39:13.284Z,18.35
2022-08-02T11:42:19.602Z,18.00
2022-08-02T11:45:29.565Z,18.77
2022-08-02T11:48:40.014Z,18.23
2022-08-02T11:52:00.965Z,18.02
2022-08-02T11:55:07.714Z,18.40
2022-08-02T11:58:12.240Z,18.40
2022-08-02T12:01:15.780Z,20.63
2022-08-02T12:04:22.969Z,19.08
2022-08-02T12:07:35.463Z,18.60
2022-08-02T12:10:48.534Z,17.63
2022-08-02T12:13:57.151Z,19.10
2022-08-02T12:17:19.259Z,19.67
2022-08-02T12:20:37.099Z,19.70
2022-08-02T12:23:59.920Z,20.95
2022-08-02T12:27:04.979Z,23.73
2022-08-02T12:30:27.467Z,28.73
2022-08-02T12:33:48.285Z,27.92
2022-08-02T12:37:09.640Z,28.00
2022-08-02T12:40:30.362Z,33.20
2022-08-02T12:43:34.152Z,35.38
2022-08-02T12:46:42.100Z,35.03
2022-08-02T12:50:12.926Z,36.65
2022-08-02T12:53:18.899Z,43.92
2022-08-02T12:56:34.351Z,40.50
2022-08-02T12:59:39.941Z,41.88
2022-08-02T13:02:43.629Z,33.10
2022-08-02T13:05:57.343Z,24.65
2022-08-02T13:09:03.847Z,21.10
2022-08-02T13:12:09.597Z,19.77
2022-08-02T13:15:46.704Z,19.38
2022-08-02T13:18:37.547Z,23.25
2022-08-02T13:22:01.064Z,24.42
2022-08-02T13:25:06.453Z,60.63
2022-08-02T13:28:10.219Z,41.55
2022-08-02T13:31:35.279Z,26.30
2022-08-02T13:34:38.561Z,27.80
2022-08-02T13:37:42.841Z,27.88
2022-08-02T13:41:05.375Z,25.38
2022-08-02T13:44:10.681Z,24.38
2022-08-02T13:47:14.484Z,22.73
2022-08-02T13:50:30.792Z,22.45
2022-08-02T13:53:34.538Z,22.30
2022-08-02T13:56:38.347Z,20.48
2022-08-02T13:59:56.847Z,20.08
2022-08-02T14:03:02.298Z,20.40
2022-08-02T14:06:07.785Z,20.77
2022-08-02T14:09:13.449Z,19.13
2022-08-02T14:12:21.332Z,20.95
2022-08-02T14:15:25.274Z,19.75
2022-08-02T14:18:33.994Z,20.10
2022-08-02T14:21:47.149Z,19.75
2022-08-02T14:24:51.385Z,18.75
2022-08-02T14:27:54.947Z,18.15
2022-08-02T14:30:58.221Z,19.35
2022-08-02T14:34:02.490Z,18.52
2022-08-02T14:37:06.167Z,17.02
2022-08-02T14:40:27.933Z,17.17
2022-08-02T14:43:52.483Z,15.07
2022-08-02T14:46:56.836Z,16.40
2022-08-02T14:50:00.617Z,14.57
2022-08-02T14:53:04.603Z,14.88
2022-08-02T14:56:07.919Z,14.13
2022-08-02T14:59:11.876Z,12.57
2022-08-02T15:02:15.962Z,12.52
2022-08-02T15:05:20.425Z,11.90
2022-08-02T15:08:24.044Z,12.50
2022-08-02T15:11:28.408Z,11.77
2022-08-02T15:14:31.625Z,12.15
2022-08-02T15:17:35.613Z,13.25
2022-08-02T15:20:39.217Z,18.35
2022-08-02T15:23:46.497Z,20.10
2022-08-02T15:26:50.890Z,22.17
2022-08-02T15:30:01.081Z,22.92
2022-08-02T15:33:05.954Z,20.73
2022-08-02T15:36:10.232Z,21.35
2022-08-02T15:39:13.887Z,29.38
2022-08-02T15:42:19.305Z,15.98
2022-08-02T15:45:23.219Z,15.02
2022-08-02T15:48:27.468Z,14.93
2022-08-02T15:51:30.737Z,16.95
2022-08-02T15:54:34.972Z,18.13
2022-08-02T15:57:38.254Z,22.00
2022-08-02T16:00:42.283Z,18.95
2022-08-02T16:03:45.720Z,14.82
2022-08-02T16:06:50.026Z,14.98
2022-08-02T16:09:53.672Z,19.85
2022-08-02T16:13:17.582Z,15.75
2022-08-02T16:16:25.912Z,14.77
2022-08-02T16:19:48.605Z,13.52
2022-08-02T16:22:53.717Z,13.25
2022-08-02T16:25:57.285Z,12.68
2022-08-02T16:29:02.760Z,12.45
2022-08-02T16:32:07.321Z,12.20
2022-08-02T16:35:11.359Z,11.90
2022-08-02T16:38:15.006Z,12.45
2022-08-02T16:41:18.666Z,10.50
2022-08-02T16:44:26.877Z,12.60
2022-08-02T16:47:43.475Z,11.82
2022-08-02T16:50:48.510Z,11.82
2022-08-02T16:53:59.766Z,12.15
2022-08-02T16:57:06.008Z,12.27
2022-08-02T17:00:10.870Z,11.60
2022-08-02T17:03:15.043Z,11.10
2022-08-02T17:06:19.534Z,10.85
2022-08-02T17:10:03.164Z,10.13
2022-08-02T17:12:51.354Z,10.98
2022-08-02T17:16:15.787Z,11.60
2022-08-02T17:19:19.107Z,11.52
2022-08-02T17:22:23.100Z,11.30
2022-08-02T17:25:32.071Z,10.45
2022-08-02T17:28:41.718Z,12.10
2022-08-02T17:32:12.714Z,10.80
2022-08-02T17:35:16.966Z,10.53
2022-08-02T17:38:26.797Z,11.02
2022-08-02T17:41:38.127Z,10.95
2022-08-02T17:44:45.301Z,11.32
2022-08-02T17:48:03.848Z,10.27
2022-08-02T17:51:08.878Z,10.18
2022-08-02T17:54:18.740Z,10.75
2022-08-02T17:57:24.085Z,10.82
2022-08-02T18:00:48.298Z,11.07
2022-08-02T18:03:54.666Z,11.27
2022-08-02T18:07:04.528Z,11.80
2022-08-02T18:10:13.049Z,12.35
2022-08-02T18:13:19.616Z,18.60
2022-08-02T18:16:24.141Z,19.15
2022-08-02T18:19:42.243Z,19.00
2022-08-02T18:22:47.013Z,17.88
2022-08-02T18:25:59.567Z,16.75
2022-08-02T18:29:06.607Z,15.40
2022-08-02T18:32:11.724Z,14.48
2022-08-02T18:35:16.559Z,13.15
2022-08-02T18:38:20.310Z,12.57
2022-08-02T18:41:24.780Z,12.98
2022-08-02T18:44:30.442Z,10.80
2022-08-02T18:47:34.570Z,11.00
2022-08-02T18:50:40.100Z,9.10
2022-08-02T18:53:44.108Z,8.98
2022-08-02T18:56:51.167Z,8.40
2022-08-02T18:59:56.782Z,10.27
2022-08-02T19:03:01.128Z,9.00
2022-08-02T19:06:06.760Z,12.82
2022-08-02T19:09:13.161Z,11.20
2022-08-02T19:12:27.902Z,12.18
2022-08-02T19:15:32.876Z,13.77
2022-08-02T19:18:38.206Z,13.05
2022-08-02T19:22:16.745Z,13.43
2022-08-02T19:25:07.303Z,11.88
2022-08-02T19:28:26.402Z,10.93
2022-08-02T19:31:34.639Z,9.85
2022-08-02T19:34:54.273Z,11.90
2022-08-02T19:37:58.968Z,11.85
2022-08-02T19:41:03.775Z,11.63
2022-08-02T19:44:22.910Z,12.23
2022-08-02T19:47:38.469Z,11.27
2022-08-02T19:50:44.008Z,9.43
2022-08-02T19:53:53.577Z,7.82
2022-08-02T19:56:57.874Z,7.53
2022-08-02T20:00:02.024Z,8.18
2022-08-02T20:03:16.038Z,5.85
2022-08-02T20:06:28.559Z,7.10
2022-08-02T20:09:47.275Z,9.65
2022-08-02T20:12:51.319Z,5.63
2022-08-02T20:15:56.955Z,7.68
2022-08-02T20:19:01.434Z,5.90
2022-08-02T20:22:06.380Z,6.78
2022-08-02T20:25:11.226Z,5.75
2022-08-02T20:28:19.961Z,5.40
2022-08-02T20:31:26.172Z,6.17
2022-08-02T20:34:33.757Z,4.55
2022-08-02T20:38:00.931Z,6.00
2022-08-02T20:41:04.643Z,6.70
2022-08-02T20:47:39.151Z,8.70
2022-08-02T20:50:55.138Z,8.90
2022-08-02T20:53:58.948Z,7.95
2022-08-02T20:57:03.224Z,7.97
2022-08-02T21:00:08.400Z,6.60
2022-08-02T21:03:14.301Z,6.20
2022-08-02T21:06:18.190Z,7.40
2022-08-02T21:09:52.493Z,8.68
2022-08-02T21:12:50.109Z,7.93
2022-08-02T21:15:56.972Z,8.18
2022-08-02T21:19:09.570Z,7.75
2022-08-02T21:22:14.050Z,5.78
2022-08-02T21:25:42.372Z,6.05
2022-08-02T21:28:46.681Z,5.68
2022-08-02T21:31:55.477Z,4.72
2022-08-02T21:34:59.557Z,4.70
2022-08-02T21:38:03.078Z,4.53
2022-08-02T21:41:12.074Z,4.60
2022-08-02T21:44:17.127Z,3.85
2022-08-02T21:47:27.495Z,4.20
2022-08-02T21:50:30.831Z,4.75
2022-08-02T21:53:42.600Z,4.90
2022-08-02T21:56:54.034Z,4.93
2022-08-02T21:59:58.387Z,4.72
2022-08-02T22:03:23.175Z,6.10
2022-08-02T22:06:28.814Z,7.82
2022-08-02T22:09:42.127Z,13.77
2022-08-02T22:12:56.445Z,15.98
2022-08-02T22:16:05.854Z,13.60
2022-08-02T22:19:09.854Z,14.70
2022-08-02T22:22:13.848Z,13.18
2022-08-02T22:25:21.464Z,13.07
2022-08-02T22:28:50.971Z,14.23
2022-08-02T22:31:56.562Z,12.27
2022-08-02T22:35:00.199Z,12.57
2022-08-02T22:38:16.025Z,11.30
2022-08-02T22:41:23.411Z,11.40
2022-08-02T22:44:26.530Z,10.80
2022-08-02T22:47:30.504Z,9.52
2022-08-02T22:50:42.269Z,8.85
2022-08-02T22:53:46.654Z,9.02
2022-08-02T22:56:49.890Z,9.85
2022-08-02T22:59:06.251Z,10.30
2022-08-02T22:59:54.549Z,9.30
2022-08-02T23:02:57.806Z,8.95
2022-08-02T23:06:02.399Z,7.95
2022-08-02T23:09:06.021Z,7.97
2022-08-02T23:12:10.314Z,8.55
2022-08-02T23:15:13.995Z,8.80
2022-08-02T23:18:36.555Z,8.43
2022-08-02T23:21:46.014Z,9.52
2022-08-02T23:25:05.942Z,9.43
2022-08-02T23:28:09.867Z,9.73
2022-08-02T23:31:38.039Z,7.85
2022-08-02T23:34:43.642Z,8.40
2022-08-02T23:37:59.322Z,8.20
2022-08-02T23:41:05.410Z,12.30
2022-08-02T23:44:14.089Z,10.43
2022-08-02T23:47:18.573Z,10.20
2022-08-02T23:50:22.686Z,9.80
2022-08-02T23:53:26.725Z,9.60
2022-08-02T23:56:31.078Z,9.73
2022-08-02T23:59:34.611Z,8.52
